sensor_id;sensor_type;location;lat;lon;timestamp;pressure;altitude;pressure_sealevel;temperature;humidity
17060;BME280;8646;49.716;9.266;2023-03-14T00:00:37;98430.56;;;11.18;93.36
17060;BME280;8646;49.716;9.266;2023-03-14T00:03:40;98439.22;;;11.23;93.23
17060;BME280;8646;49.716;9.266;2023-03-14T00:06:43;98446.34;;;11.24;93.15
17060;BME280;8646;49.716;9.266;2023-03-14T00:09:48;98443.28;;;11.29;93.17
17060;BME280;8646;49.716;9.266;2023-03-14T00:12:52;98438.84;;;11.28;93.33
17060;BME280;8646;49.716;9.266;2023-03-14T00:16:01;98435.91;;;11.31;92.99
17060;BME280;8646;49.716;9.266;2023-03-14T00:19:09;98433.97;;;11.33;92.79
17060;BME280;8646;49.716;9.266;2023-03-14T00:22:12;98441.25;;;11.43;91.59
17060;BME280;8646;49.716;9.266;2023-03-14T00:25:14;98449.75;;;11.39;91.96
17060;BME280;8646;49.716;9.266;2023-03-14T00:28:18;98443.13;;;11.43;91.98
17060;BME280;8646;49.716;9.266;2023-03-14T00:31:21;98448.19;;;11.47;91.63
17060;BME280;8646;49.716;9.266;2023-03-14T00:34:33;98438.97;;;11.50;91.46
17060;BME280;8646;49.716;9.266;2023-03-14T00:37:36;98435.16;;;11.53;90.95
17060;BME280;8646;49.716;9.266;2023-03-14T00:40:42;98435.78;;;11.56;89.96
17060;BME280;8646;49.716;9.266;2023-03-14T00:43:46;98447.59;;;11.55;89.95
17060;BME280;8646;49.716;9.266;2023-03-14T00:46:49;98442.69;;;11.60;89.52
17060;BME280;8646;49.716;9.266;2023-03-14T00:49:52;98436.66;;;11.57;89.53
17060;BME280;8646;49.716;9.266;2023-03-14T00:52:54;98437.53;;;11.57;89.31
17060;BME280;8646;49.716;9.266;2023-03-14T00:56:04;98439.25;;;11.58;89.03
17060;BME280;8646;49.716;9.266;2023-03-14T00:59:18;98418.56;;;11.57;88.97
17060;BME280;8646;49.716;9.266;2023-03-14T01:02:23;98425.81;;;11.57;88.79
17060;BME280;8646;49.716;9.266;2023-03-14T01:05:27;98422.13;;;11.58;88.69
17060;BME280;8646;49.716;9.266;2023-03-14T01:08:32;98415.59;;;11.60;88.17
17060;BME280;8646;49.716;9.266;2023-03-14T01:11:36;98423.63;;;11.62;87.75
17060;BME280;8646;49.716;9.266;2023-03-14T01:14:45;98420.69;;;11.65;87.14
17060;BME280;8646;49.716;9.266;2023-03-14T01:17:48;98420.69;;;11.65;87.50
17060;BME280;8646;49.716;9.266;2023-03-14T01:20:53;98429.03;;;11.62;87.46
17060;BME280;8646;49.716;9.266;2023-03-14T01:23:57;98430.75;;;11.63;87.37
17060;BME280;8646;49.716;9.266;2023-03-14T01:27:07;98420.91;;;11.62;87.11
17060;BME280;8646;49.716;9.266;2023-03-14T01:30:12;98424.47;;;11.62;87.09
17060;BME280;8646;49.716;9.266;2023-03-14T01:33:15;98427.06;;;11.64;86.73
17060;BME280;8646;49.716;9.266;2023-03-14T01:36:18;98406.03;;;11.67;86.40
17060;BME280;8646;49.716;9.266;2023-03-14T01:39:21;98388.28;;;11.63;86.83
17060;BME280;8646;49.716;9.266;2023-03-14T01:42:23;98390.78;;;11.66;86.02
17060;BME280;8646;49.716;9.266;2023-03-14T01:46:14;98393.22;;;11.58;86.42
17060;BME280;8646;49.716;9.266;2023-03-14T01:49:24;98387.91;;;11.57;86.58
17060;BME280;8646;49.716;9.266;2023-03-14T01:52:32;98386.16;;;11.56;86.56
17060;BME280;8646;49.716;9.266;2023-03-14T01:55:37;98380.16;;;11.63;85.87
17060;BME280;8646;49.716;9.266;2023-03-14T01:58:45;98366.25;;;11.68;86.09
17060;BME280;8646;49.716;9.266;2023-03-14T02:01:55;98354.31;;;11.70;85.69
17060;BME280;8646;49.716;9.266;2023-03-14T02:05:02;98353.22;;;11.73;85.51
17060;BME280;8646;49.716;9.266;2023-03-14T02:08:07;98346.47;;;11.78;85.57
17060;BME280;8646;49.716;9.266;2023-03-14T02:11:10;98345.00;;;11.74;85.63
17060;BME280;8646;49.716;9.266;2023-03-14T02:14:21;98323.53;;;11.71;85.44
17060;BME280;8646;49.716;9.266;2023-03-14T02:17:31;98336.63;;;11.77;85.39
17060;BME280;8646;49.716;9.266;2023-03-14T02:20:40;98326.53;;;11.79;85.45
17060;BME280;8646;49.716;9.266;2023-03-14T02:23:53;98306.81;;;11.77;86.02
17060;BME280;8646;49.716;9.266;2023-03-14T02:27:07;98303.13;;;11.78;85.74
17060;BME280;8646;49.716;9.266;2023-03-14T02:30:13;98285.88;;;11.79;85.22
17060;BME280;8646;49.716;9.266;2023-03-14T02:33:19;98293.03;;;11.80;85.27
17060;BME280;8646;49.716;9.266;2023-03-14T02:36:23;98299.56;;;11.78;85.04
17060;BME280;8646;49.716;9.266;2023-03-14T02:39:30;98310.66;;;11.75;85.06
17060;BME280;8646;49.716;9.266;2023-03-14T02:42:36;98316.78;;;11.77;84.87
17060;BME280;8646;49.716;9.266;2023-03-14T02:45:42;98312.75;;;11.82;84.87
17060;BME280;8646;49.716;9.266;2023-03-14T02:48:51;98313.72;;;11.81;84.95
17060;BME280;8646;49.716;9.266;2023-03-14T02:51:55;98301.53;;;11.87;84.34
17060;BME280;8646;49.716;9.266;2023-03-14T02:54:58;98307.34;;;11.82;84.40
17060;BME280;8646;49.716;9.266;2023-03-14T02:58:05;98284.53;;;11.85;84.41
17060;BME280;8646;49.716;9.266;2023-03-14T03:01:07;98263.34;;;11.79;84.49
17060;BME280;8646;49.716;9.266;2023-03-14T03:04:10;98284.41;;;11.75;84.16
17060;BME280;8646;49.716;9.266;2023-03-14T03:07:20;98283.75;;;11.72;84.30
17060;BME280;8646;49.716;9.266;2023-03-14T03:10:25;98280.19;;;11.71;84.23
17060;BME280;8646;49.716;9.266;2023-03-14T03:13:33;98278.44;;;11.70;84.48
17060;BME280;8646;49.716;9.266;2023-03-14T03:16:35;98278.00;;;11.76;84.26
17060;BME280;8646;49.716;9.266;2023-03-14T03:19:43;98274.41;;;11.76;84.36
17060;BME280;8646;49.716;9.266;2023-03-14T03:22:46;98271.47;;;11.79;84.54
17060;BME280;8646;49.716;9.266;2023-03-14T03:25:54;98253.59;;;11.76;84.21
17060;BME280;8646;49.716;9.266;2023-03-14T03:28:58;98267.03;;;11.78;84.03
17060;BME280;8646;49.716;9.266;2023-03-14T03:32:00;98264.22;;;11.79;83.18
17060;BME280;8646;49.716;9.266;2023-03-14T03:35:04;98251.34;;;11.70;83.37
17060;BME280;8646;49.716;9.266;2023-03-14T03:38:07;98230.66;;;11.69;83.42
17060;BME280;8646;49.716;9.266;2023-03-14T03:41:10;98243.50;;;11.67;83.29
17060;BME280;8646;49.716;9.266;2023-03-14T03:44:14;98235.38;;;11.67;83.67
17060;BME280;8646;49.716;9.266;2023-03-14T03:47:17;98227.25;;;11.67;83.50
17060;BME280;8646;49.716;9.266;2023-03-14T03:50:20;98226.13;;;11.70;83.07
17060;BME280;8646;49.716;9.266;2023-03-14T03:53:24;98226.38;;;11.67;83.09
17060;BME280;8646;49.716;9.266;2023-03-14T03:56:47;98228.56;;;11.62;82.98
17060;BME280;8646;49.716;9.266;2023-03-14T03:59:54;98220.72;;;11.59;83.02
17060;BME280;8646;49.716;9.266;2023-03-14T04:02:56;98222.56;;;11.58;82.76
17060;BME280;8646;49.716;9.266;2023-03-14T04:06:05;98213.19;;;11.51;82.45
17060;BME280;8646;49.716;9.266;2023-03-14T04:09:08;98225.72;;;11.52;82.27
17060;BME280;8646;49.716;9.266;2023-03-14T04:12:10;98222.41;;;11.48;82.28
17060;BME280;8646;49.716;9.266;2023-03-14T04:15:17;98212.94;;;11.43;82.25
17060;BME280;8646;49.716;9.266;2023-03-14T04:18:21;98223.25;;;11.38;82.42
17060;BME280;8646;49.716;9.266;2023-03-14T04:21:29;98201.34;;;11.30;81.95
17060;BME280;8646;49.716;9.266;2023-03-14T04:24:31;98210.97;;;11.34;81.68
17060;BME280;8646;49.716;9.266;2023-03-14T04:27:34;98217.47;;;11.31;81.75
17060;BME280;8646;49.716;9.266;2023-03-14T04:30:40;98231.38;;;11.27;82.12
17060;BME280;8646;49.716;9.266;2023-03-14T04:33:49;98232.47;;;11.24;81.80
17060;BME280;8646;49.716;9.266;2023-03-14T04:36:54;98241.47;;;11.25;82.05
17060;BME280;8646;49.716;9.266;2023-03-14T04:39:59;98220.66;;;11.25;81.79
17060;BME280;8646;49.716;9.266;2023-03-14T04:43:06;98225.22;;;11.25;81.83
17060;BME280;8646;49.716;9.266;2023-03-14T04:46:10;98210.44;;;11.29;81.60
17060;BME280;8646;49.716;9.266;2023-03-14T04:49:15;98218.06;;;11.24;81.69
17060;BME280;8646;49.716;9.266;2023-03-14T04:52:17;98208.59;;;11.18;81.83
17060;BME280;8646;49.716;9.266;2023-03-14T04:55:23;98207.97;;;11.15;81.81
17060;BME280;8646;49.716;9.266;2023-03-14T04:58:25;98203.66;;;11.12;82.40
17060;BME280;8646;49.716;9.266;2023-03-14T05:01:29;98187.56;;;11.11;82.03
17060;BME280;8646;49.716;9.266;2023-03-14T05:04:32;98179.66;;;11.07;81.68
17060;BME280;8646;49.716;9.266;2023-03-14T05:07:36;98187.91;;;11.06;81.88
17060;BME280;8646;49.716;9.266;2023-03-14T05:10:41;98170.91;;;11.04;81.84
17060;BME280;8646;49.716;9.266;2023-03-14T05:13:55;98173.75;;;11.02;81.20
17060;BME280;8646;49.716;9.266;2023-03-14T05:16:59;98166.25;;;11.06;80.62
17060;BME280;8646;49.716;9.266;2023-03-14T05:20:05;98172.38;;;10.97;81.02
17060;BME280;8646;49.716;9.266;2023-03-14T05:23:10;98164.13;;;10.98;81.25
17060;BME280;8646;49.716;9.266;2023-03-14T05:26:12;98163.66;;;11.04;81.38
17060;BME280;8646;49.716;9.266;2023-03-14T05:29:18;98153.69;;;11.05;81.62
17060;BME280;8646;49.716;9.266;2023-03-14T05:32:22;98156.28;;;11.06;81.74
17060;BME280;8646;49.716;9.266;2023-03-14T05:35:24;98163.91;;;11.13;81.23
17060;BME280;8646;49.716;9.266;2023-03-14T05:38:29;98179.81;;;11.17;81.15
17060;BME280;8646;49.716;9.266;2023-03-14T05:41:39;98155.69;;;11.25;80.52
17060;BME280;8646;49.716;9.266;2023-03-14T05:44:45;98155.19;;;11.31;80.11
17060;BME280;8646;49.716;9.266;2023-03-14T05:47:50;98163.81;;;11.36;80.54
17060;BME280;8646;49.716;9.266;2023-03-14T05:50:54;98146.22;;;11.42;79.79
17060;BME280;8646;49.716;9.266;2023-03-14T05:53:57;98154.84;;;11.47;79.17
17060;BME280;8646;49.716;9.266;2023-03-14T05:57:01;98151.03;;;11.50;78.64
17060;BME280;8646;49.716;9.266;2023-03-14T06:00:05;98137.38;;;11.51;78.81
17060;BME280;8646;49.716;9.266;2023-03-14T06:03:09;98150.41;;;11.46;78.93
17060;BME280;8646;49.716;9.266;2023-03-14T06:06:12;98155.81;;;11.46;79.54
17060;BME280;8646;49.716;9.266;2023-03-14T06:09:14;98149.41;;;11.47;79.68
17060;BME280;8646;49.716;9.266;2023-03-14T06:12:17;98157.66;;;11.45;79.68
17060;BME280;8646;49.716;9.266;2023-03-14T06:15:20;98154.44;;;11.52;78.91
17060;BME280;8646;49.716;9.266;2023-03-14T06:18:24;98147.44;;;11.49;79.52
17060;BME280;8646;49.716;9.266;2023-03-14T06:21:27;98150.63;;;11.54;79.18
17060;BME280;8646;49.716;9.266;2023-03-14T06:24:30;98145.59;;;11.61;79.16
17060;BME280;8646;49.716;9.266;2023-03-14T06:27:32;98146.09;;;11.66;78.50
17060;BME280;8646;49.716;9.266;2023-03-14T06:30:35;98167.88;;;11.64;78.58
17060;BME280;8646;49.716;9.266;2023-03-14T06:33:39;98140.78;;;11.64;78.30
17060;BME280;8646;49.716;9.266;2023-03-14T06:36:42;98143.00;;;11.70;77.94
17060;BME280;8646;49.716;9.266;2023-03-14T06:39:44;98144.38;;;11.76;77.76
17060;BME280;8646;49.716;9.266;2023-03-14T06:42:47;98146.72;;;11.80;77.72
17060;BME280;8646;49.716;9.266;2023-03-14T06:45:50;98135.47;;;11.85;76.70
17060;BME280;8646;49.716;9.266;2023-03-14T06:48:54;98141.66;;;11.87;76.59
17060;BME280;8646;49.716;9.266;2023-03-14T06:51:57;98144.00;;;11.92;76.58
17060;BME280;8646;49.716;9.266;2023-03-14T06:55:00;98120.06;;;11.97;75.94
17060;BME280;8646;49.716;9.266;2023-03-14T06:58:20;98125.25;;;12.00;75.91
17060;BME280;8646;49.716;9.266;2023-03-14T07:01:24;98117.34;;;12.08;75.75
17060;BME280;8646;49.716;9.266;2023-03-14T07:04:32;98101.66;;;12.11;74.72
17060;BME280;8646;49.716;9.266;2023-03-14T07:07:34;98103.72;;;12.19;73.81
17060;BME280;8646;49.716;9.266;2023-03-14T07:10:40;98102.75;;;12.20;73.55
17060;BME280;8646;49.716;9.266;2023-03-14T07:13:43;98100.91;;;12.20;73.54
17060;BME280;8646;49.716;9.266;2023-03-14T07:16:52;98114.31;;;12.22;73.72
17060;BME280;8646;49.716;9.266;2023-03-14T07:19:56;98126.63;;;12.26;73.54
17060;BME280;8646;49.716;9.266;2023-03-14T07:22:59;98138.44;;;12.25;74.07
17060;BME280;8646;49.716;9.266;2023-03-14T07:26:07;98128.09;;;12.30;73.95
17060;BME280;8646;49.716;9.266;2023-03-14T07:29:09;98136.13;;;12.32;74.74
17060;BME280;8646;49.716;9.266;2023-03-14T07:32:12;98131.28;;;12.35;74.96
17060;BME280;8646;49.716;9.266;2023-03-14T07:35:19;98132.75;;;12.39;74.93
17060;BME280;8646;49.716;9.266;2023-03-14T07:38:35;98115.53;;;12.29;75.11
17060;BME280;8646;49.716;9.266;2023-03-14T07:41:46;98154.59;;;12.58;75.44
17060;BME280;8646;49.716;9.266;2023-03-14T07:44:51;98154.69;;;12.68;75.60
17060;BME280;8646;49.716;9.266;2023-03-14T07:47:54;98161.97;;;12.68;75.42
17060;BME280;8646;49.716;9.266;2023-03-14T07:51:00;98171.38;;;12.64;75.75
17060;BME280;8646;49.716;9.266;2023-03-14T07:54:05;98163.72;;;12.57;76.11
17060;BME280;8646;49.716;9.266;2023-03-14T07:57:09;98168.81;;;12.51;75.96
17060;BME280;8646;49.716;9.266;2023-03-14T08:00:12;98160.09;;;12.47;76.29
17060;BME280;8646;49.716;9.266;2023-03-14T08:03:17;98168.94;;;12.49;76.42
17060;BME280;8646;49.716;9.266;2023-03-14T08:06:24;98155.13;;;12.52;76.52
17060;BME280;8646;49.716;9.266;2023-03-14T08:09:27;98164.66;;;12.68;76.36
17060;BME280;8646;49.716;9.266;2023-03-14T08:12:36;98168.97;;;12.70;76.20
17060;BME280;8646;49.716;9.266;2023-03-14T08:15:38;98162.69;;;12.70;76.45
17060;BME280;8646;49.716;9.266;2023-03-14T08:18:49;98151.88;;;12.58;75.94
17060;BME280;8646;49.716;9.266;2023-03-14T08:21:54;98157.28;;;12.70;76.31
17060;BME280;8646;49.716;9.266;2023-03-14T08:24:57;98155.00;;;12.75;76.02
17060;BME280;8646;49.716;9.266;2023-03-14T08:28:00;98160.09;;;12.68;76.06
17060;BME280;8646;49.716;9.266;2023-03-14T08:31:03;98159.44;;;12.76;75.83
17060;BME280;8646;49.716;9.266;2023-03-14T08:34:09;98165.81;;;12.86;76.51
17060;BME280;8646;49.716;9.266;2023-03-14T08:37:13;98170.53;;;13.05;76.11
17060;BME280;8646;49.716;9.266;2023-03-14T08:40:27;98165.09;;;13.25;75.82
17060;BME280;8646;49.716;9.266;2023-03-14T08:43:29;98167.66;;;13.48;75.28
17060;BME280;8646;49.716;9.266;2023-03-14T08:46:32;98165.84;;;13.58;74.80
17060;BME280;8646;49.716;9.266;2023-03-14T08:49:38;98179.88;;;13.63;74.84
17060;BME280;8646;49.716;9.266;2023-03-14T08:52:42;98170.47;;;13.67;73.96
17060;BME280;8646;49.716;9.266;2023-03-14T08:55:52;98174.19;;;13.66;74.21
17060;BME280;8646;49.716;9.266;2023-03-14T08:58:55;98172.19;;;13.68;73.39
17060;BME280;8646;49.716;9.266;2023-03-14T09:01:58;98179.88;;;13.63;73.38
17060;BME280;8646;49.716;9.266;2023-03-14T09:05:01;98187.59;;;13.58;73.88
17060;BME280;8646;49.716;9.266;2023-03-14T09:08:13;98179.00;;;13.62;74.29
17060;BME280;8646;49.716;9.266;2023-03-14T09:11:15;98181.25;;;13.78;73.62
17060;BME280;8646;49.716;9.266;2023-03-14T09:14:20;98184.59;;;13.91;73.30
17060;BME280;8646;49.716;9.266;2023-03-14T09:17:23;98174.78;;;14.09;73.27
17060;BME280;8646;49.716;9.266;2023-03-14T09:20:26;98171.22;;;14.28;72.65
17060;BME280;8646;49.716;9.266;2023-03-14T09:23:37;98159.94;;;14.33;72.37
17060;BME280;8646;49.716;9.266;2023-03-14T09:26:41;98160.78;;;14.33;72.07
17060;BME280;8646;49.716;9.266;2023-03-14T09:29:51;98165.94;;;14.27;71.88
17060;BME280;8646;49.716;9.266;2023-03-14T09:32:54;98173.78;;;14.20;71.75
17060;BME280;8646;49.716;9.266;2023-03-14T09:36:01;98155.72;;;14.19;71.58
17060;BME280;8646;49.716;9.266;2023-03-14T09:39:05;98164.75;;;14.20;71.42
17060;BME280;8646;49.716;9.266;2023-03-14T09:42:14;98165.78;;;14.19;71.83
17060;BME280;8646;49.716;9.266;2023-03-14T09:45:26;98164.06;;;14.18;71.67
17060;BME280;8646;49.716;9.266;2023-03-14T09:48:32;98175.47;;;14.11;71.94
17060;BME280;8646;49.716;9.266;2023-03-14T09:51:41;98178.63;;;14.07;71.93
17060;BME280;8646;49.716;9.266;2023-03-14T09:54:49;98180.78;;;14.13;72.27
17060;BME280;8646;49.716;9.266;2023-03-14T09:57:56;98181.94;;;14.10;72.49
17060;BME280;8646;49.716;9.266;2023-03-14T10:01:02;98180.03;;;14.11;72.28
17060;BME280;8646;49.716;9.266;2023-03-14T10:04:12;98179.66;;;14.16;72.24
17060;BME280;8646;49.716;9.266;2023-03-14T10:07:21;98172.38;;;14.26;71.41
17060;BME280;8646;49.716;9.266;2023-03-14T10:10:29;98180.38;;;14.27;71.21
17060;BME280;8646;49.716;9.266;2023-03-14T10:13:31;98166.63;;;14.29;71.86
17060;BME280;8646;49.716;9.266;2023-03-14T10:16:35;98139.22;;;14.41;71.94
17060;BME280;8646;49.716;9.266;2023-03-14T10:19:50;98163.84;;;14.88;70.82
17060;BME280;8646;49.716;9.266;2023-03-14T10:22:54;98172.41;;;15.22;70.03
17060;BME280;8646;49.716;9.266;2023-03-14T10:26:13;98164.03;;;15.33;68.94
17060;BME280;8646;49.716;9.266;2023-03-14T10:29:16;98159.50;;;15.24;68.79
17060;BME280;8646;49.716;9.266;2023-03-14T10:32:33;98166.09;;;15.12;69.02
17060;BME280;8646;49.716;9.266;2023-03-14T10:35:36;98151.94;;;14.99;69.72
17060;BME280;8646;49.716;9.266;2023-03-14T10:38:41;98164.97;;;14.85;69.67
17060;BME280;8646;49.716;9.266;2023-03-14T10:41:48;98169.72;;;14.64;70.38
17060;BME280;8646;49.716;9.266;2023-03-14T10:44:55;98177.16;;;14.43;71.56
17060;BME280;8646;49.716;9.266;2023-03-14T10:47:59;98187.25;;;14.31;71.97
17060;BME280;8646;49.716;9.266;2023-03-14T10:51:10;98193.84;;;14.29;73.19
17060;BME280;8646;49.716;9.266;2023-03-14T10:54:22;98187.25;;;14.31;73.53
17060;BME280;8646;49.716;9.266;2023-03-14T10:57:30;98195.56;;;14.30;74.40
17060;BME280;8646;49.716;9.266;2023-03-14T11:00:32;98194.69;;;14.29;74.92
17060;BME280;8646;49.716;9.266;2023-03-14T11:03:38;98196.38;;;14.21;75.48
17060;BME280;8646;49.716;9.266;2023-03-14T11:06:56;98208.53;;;14.07;76.17
17060;BME280;8646;49.716;9.266;2023-03-14T11:10:16;98205.50;;;14.00;76.60
17060;BME280;8646;49.716;9.266;2023-03-14T11:13:23;98196.88;;;13.95;77.56
17060;BME280;8646;49.716;9.266;2023-03-14T11:16:45;98190.44;;;13.96;77.87
17060;BME280;8646;49.716;9.266;2023-03-14T11:19:57;98188.47;;;13.98;77.94
17060;BME280;8646;49.716;9.266;2023-03-14T11:23:13;98184.75;;;13.99;78.06
17060;BME280;8646;49.716;9.266;2023-03-14T11:26:27;98184.31;;;13.94;78.45
17060;BME280;8646;49.716;9.266;2023-03-14T11:29:39;98179.69;;;13.85;78.55
17060;BME280;8646;49.716;9.266;2023-03-14T11:32:44;98183.53;;;13.83;78.59
17060;BME280;8646;49.716;9.266;2023-03-14T11:35:53;98175.81;;;13.78;78.93
17060;BME280;8646;49.716;9.266;2023-03-14T11:38:59;98166.47;;;13.71;79.49
17060;BME280;8646;49.716;9.266;2023-03-14T11:42:04;98146.38;;;13.53;79.36
17060;BME280;8646;49.716;9.266;2023-03-14T11:45:17;98167.88;;;13.65;79.67
17060;BME280;8646;49.716;9.266;2023-03-14T11:48:29;98156.16;;;13.65;79.19
17060;BME280;8646;49.716;9.266;2023-03-14T11:51:50;98159.00;;;13.63;79.09
17060;BME280;8646;49.716;9.266;2023-03-14T11:54:56;98167.31;;;13.62;79.13
17060;BME280;8646;49.716;9.266;2023-03-14T11:58:05;98160.66;;;13.55;78.68
17060;BME280;8646;49.716;9.266;2023-03-14T12:01:14;98173.56;;;13.53;79.09
17060;BME280;8646;49.716;9.266;2023-03-14T12:04:34;98182.97;;;13.49;78.92
17060;BME280;8646;49.716;9.266;2023-03-14T12:08:03;98188.94;;;13.43;79.60
17060;BME280;8646;49.716;9.266;2023-03-14T12:11:33;98188.94;;;13.43;79.53
17060;BME280;8646;49.716;9.266;2023-03-14T12:14:37;98183.50;;;13.43;79.70
17060;BME280;8646;49.716;9.266;2023-03-14T12:17:53;98177.81;;;13.46;79.52
17060;BME280;8646;49.716;9.266;2023-03-14T12:20:58;98192.91;;;13.38;79.44
17060;BME280;8646;49.716;9.266;2023-03-14T12:24:02;98194.38;;;13.43;79.85
17060;BME280;8646;49.716;9.266;2023-03-14T12:27:06;98201.97;;;13.49;79.80
17060;BME280;8646;49.716;9.266;2023-03-14T12:30:18;98185.09;;;13.45;79.69
17060;BME280;8646;49.716;9.266;2023-03-14T12:33:29;98204.44;;;13.52;79.99
17060;BME280;8646;49.716;9.266;2023-03-14T12:36:55;98205.63;;;13.59;80.01
17060;BME280;8646;49.716;9.266;2023-03-14T12:40:13;98219.66;;;13.64;80.05
17060;BME280;8646;49.716;9.266;2023-03-14T12:43:25;98232.91;;;13.57;80.53
17060;BME280;8646;49.716;9.266;2023-03-14T12:46:28;98268.91;;;13.50;81.00
17060;BME280;8646;49.716;9.266;2023-03-14T12:49:35;98288.72;;;13.41;81.60
17060;BME280;8646;49.716;9.266;2023-03-14T12:52:46;98302.63;;;13.26;81.29
17060;BME280;8646;49.716;9.266;2023-03-14T12:55:59;98335.88;;;13.08;82.15
17060;BME280;8646;49.716;9.266;2023-03-14T12:59:21;98343.22;;;12.85;81.29
17060;BME280;8646;49.716;9.266;2023-03-14T13:02:37;98360.66;;;12.71;80.83
17060;BME280;8646;49.716;9.266;2023-03-14T13:05:53;98391.53;;;12.48;80.71
17060;BME280;8646;49.716;9.266;2023-03-14T13:08:56;98407.41;;;12.41;79.59
17060;BME280;8646;49.716;9.266;2023-03-14T13:12:01;98444.25;;;12.33;80.00
17060;BME280;8646;49.716;9.266;2023-03-14T13:15:18;98432.78;;;12.07;78.12
17060;BME280;8646;49.716;9.266;2023-03-14T13:18:27;98460.81;;;11.83;79.47
17060;BME280;8646;49.716;9.266;2023-03-14T13:21:36;98473.94;;;11.53;81.60
17060;BME280;8646;49.716;9.266;2023-03-14T13:24:39;98493.47;;;11.45;82.76
17060;BME280;8646;49.716;9.266;2023-03-14T13:27:42;98506.63;;;11.39;83.35
17060;BME280;8646;49.716;9.266;2023-03-14T13:30:47;98508.25;;;11.41;84.26
17060;BME280;8646;49.716;9.266;2023-03-14T13:33:58;98518.22;;;11.28;83.60
17060;BME280;8646;49.716;9.266;2023-03-14T13:37:02;98517.81;;;11.22;83.52
17060;BME280;8646;49.716;9.266;2023-03-14T13:40:18;98523.25;;;11.22;83.52
17060;BME280;8646;49.716;9.266;2023-03-14T13:43:25;98534.25;;;11.31;83.09
17060;BME280;8646;49.716;9.266;2023-03-14T13:46:29;98554.16;;;11.43;82.01
17060;BME280;8646;49.716;9.266;2023-03-14T13:49:33;98548.88;;;11.65;81.42
17060;BME280;8646;49.716;9.266;2023-03-14T13:52:38;98557.16;;;11.88;80.05
17060;BME280;8646;49.716;9.266;2023-03-14T13:55:41;98568.28;;;11.96;79.07
17060;BME280;8646;49.716;9.266;2023-03-14T13:58:44;98604.00;;;12.01;79.09
17060;BME280;8646;49.716;9.266;2023-03-14T14:01:47;98602.53;;;11.97;78.72
17060;BME280;8646;49.716;9.266;2023-03-14T14:04:50;98603.44;;;11.84;78.99
17060;BME280;8646;49.716;9.266;2023-03-14T14:07:54;98610.19;;;11.79;78.55
17060;BME280;8646;49.716;9.266;2023-03-14T14:10:59;98605.81;;;11.89;78.08
17060;BME280;8646;49.716;9.266;2023-03-14T14:14:06;98620.06;;;12.04;76.10
17060;BME280;8646;49.716;9.266;2023-03-14T14:17:13;98630.69;;;12.07;75.05
17060;BME280;8646;49.716;9.266;2023-03-14T14:20:23;98645.16;;;11.95;75.17
17060;BME280;8646;49.716;9.266;2023-03-14T14:23:35;98660.38;;;11.72;75.65
17060;BME280;8646;49.716;9.266;2023-03-14T14:26:39;98687.59;;;11.58;75.68
17060;BME280;8646;49.716;9.266;2023-03-14T14:29:43;98685.66;;;11.47;76.02
17060;BME280;8646;49.716;9.266;2023-03-14T14:32:50;98723.06;;;11.42;75.73
17060;BME280;8646;49.716;9.266;2023-03-14T14:35:55;98733.56;;;11.34;75.03
17060;BME280;8646;49.716;9.266;2023-03-14T14:39:04;98717.72;;;11.28;73.57
17060;BME280;8646;49.716;9.266;2023-03-14T14:42:13;98720.56;;;11.14;74.28
17060;BME280;8646;49.716;9.266;2023-03-14T14:45:18;98736.38;;;11.32;73.07
17060;BME280;8646;49.716;9.266;2023-03-14T14:48:23;98757.41;;;11.41;72.38
17060;BME280;8646;49.716;9.266;2023-03-14T14:51:38;98766.25;;;11.43;72.63
17060;BME280;8646;49.716;9.266;2023-03-14T14:54:45;98768.97;;;11.43;72.02
17060;BME280;8646;49.716;9.266;2023-03-14T14:57:50;98778.97;;;11.43;71.96
17060;BME280;8646;49.716;9.266;2023-03-14T15:00:56;98787.72;;;11.34;72.87
17060;BME280;8646;49.716;9.266;2023-03-14T15:04:00;98795.53;;;11.26;72.95
17060;BME280;8646;49.716;9.266;2023-03-14T15:07:09;98795.28;;;11.16;71.63
17060;BME280;8646;49.716;9.266;2023-03-14T15:10:18;98821.16;;;11.07;71.98
17060;BME280;8646;49.716;9.266;2023-03-14T15:13:21;98835.66;;;11.06;71.86
17060;BME280;8646;49.716;9.266;2023-03-14T15:16:28;98833.81;;;11.07;71.87
17060;BME280;8646;49.716;9.266;2023-03-14T15:19:31;98842.81;;;11.07;72.15
17060;BME280;8646;49.716;9.266;2023-03-14T15:22:35;98849.59;;;11.00;71.97
17060;BME280;8646;49.716;9.266;2023-03-14T15:25:39;98851.19;;;10.90;72.19
17060;BME280;8646;49.716;9.266;2023-03-14T15:28:56;98864.38;;;10.82;71.59
17060;BME280;8646;49.716;9.266;2023-03-14T15:31:59;98867.25;;;10.79;71.14
17060;BME280;8646;49.716;9.266;2023-03-14T15:35:05;98865.34;;;10.81;71.10
17060;BME280;8646;49.716;9.266;2023-03-14T15:38:12;98901.69;;;10.77;71.07
17060;BME280;8646;49.716;9.266;2023-03-14T15:41:16;98893.59;;;10.77;70.70
17060;BME280;8646;49.716;9.266;2023-03-14T15:44:19;98897.66;;;10.70;70.80
17060;BME280;8646;49.716;9.266;2023-03-14T15:47:23;98900.56;;;10.67;69.87
17060;BME280;8646;49.716;9.266;2023-03-14T15:50:26;98881.16;;;10.46;69.13
17060;BME280;8646;49.716;9.266;2023-03-14T15:53:29;98910.44;;;10.54;67.88
17060;BME280;8646;49.716;9.266;2023-03-14T15:56:33;98908.91;;;10.50;67.71
17060;BME280;8646;49.716;9.266;2023-03-14T15:59:37;98918.94;;;10.48;66.30
17060;BME280;8646;49.716;9.266;2023-03-14T16:02:40;98924.56;;;10.45;64.98
17060;BME280;8646;49.716;9.266;2023-03-14T16:05:43;98927.63;;;10.39;65.67
17060;BME280;8646;49.716;9.266;2023-03-14T16:08:46;98933.25;;;10.36;65.47
17060;BME280;8646;49.716;9.266;2023-03-14T16:11:50;98941.47;;;10.34;65.23
17060;BME280;8646;49.716;9.266;2023-03-14T16:14:53;98948.13;;;10.28;65.81
17060;BME280;8646;49.716;9.266;2023-03-14T16:17:56;98954.50;;;10.27;66.36
17060;BME280;8646;49.716;9.266;2023-03-14T16:21:00;98963.56;;;10.26;66.45
17060;BME280;8646;49.716;9.266;2023-03-14T16:24:04;98960.97;;;10.25;66.73
17060;BME280;8646;49.716;9.266;2023-03-14T16:27:12;98973.59;;;10.24;66.87
17060;BME280;8646;49.716;9.266;2023-03-14T16:30:15;98973.69;;;10.23;67.06
17060;BME280;8646;49.716;9.266;2023-03-14T16:33:18;98976.53;;;10.21;66.93
17060;BME280;8646;49.716;9.266;2023-03-14T16:36:21;98992.97;;;10.17;67.64
17060;BME280;8646;49.716;9.266;2023-03-14T16:39:24;98998.47;;;10.15;67.85